Terminal Aerodrome Forecast
Issued by NWS

Home | Current Version | Previous Version | Text Only | Print | Product List | Glossary On
Versions: 1 2 3 4 5 6 7 8 9 10 11 12
000
FTUS45 KABQ 260530
TAFTCC
TAF
KTCC 260530Z 2606/2706 25011KT P6SM BKN250
     FM261900 24016G26KT P6SM SCT150
     FM270130 23011KT P6SM SCT150=

USA.gov is the U.S. government's official web portal to all federal, state and local government web resources and services.